sensor_id;sensor_type;location;lat;lon;timestamp;P1;durP1;ratioP1;P2;durP2;ratioP2
6566;SDS011;3317;43.994;22.878;2022-08-03T00:01:09;4.20;;;2.97;;
6566;SDS011;3317;43.994;22.878;2022-08-03T00:03:36;4.10;;;3.33;;
6566;SDS011;3317;43.994;22.878;2022-08-03T00:06:04;4.33;;;3.13;;
6566;SDS011;3317;43.994;22.878;2022-08-03T00:08:31;3.40;;;2.80;;
6566;SDS011;3317;43.994;22.878;2022-08-03T00:10:58;3.57;;;3.13;;
6566;SDS011;3317;43.994;22.878;2022-08-03T00:13:25;4.10;;;2.80;;
6566;SDS011;3317;43.994;22.878;2022-08-03T00:15:54;4.37;;;2.83;;
6566;SDS011;3317;43.994;22.878;2022-08-03T00:18:21;3.40;;;2.67;;
6566;SDS011;3317;43.994;22.878;2022-08-03T00:20:48;3.77;;;3.10;;
6566;SDS011;3317;43.994;22.878;2022-08-03T00:23:15;3.83;;;2.80;;
6566;SDS011;3317;43.994;22.878;2022-08-03T00:25:42;4.50;;;2.70;;
6566;SDS011;3317;43.994;22.878;2022-08-03T00:28:09;4.03;;;2.70;;
6566;SDS011;3317;43.994;22.878;2022-08-03T00:30:37;4.20;;;2.83;;
6566;SDS011;3317;43.994;22.878;2022-08-03T00:33:07;3.30;;;2.80;;
6566;SDS011;3317;43.994;22.878;2022-08-03T00:35:36;4.70;;;2.90;;
6566;SDS011;3317;43.994;22.878;2022-08-03T00:38:03;4.87;;;2.80;;
6566;SDS011;3317;43.994;22.878;2022-08-03T00:40:30;4.50;;;2.93;;
6566;SDS011;3317;43.994;22.878;2022-08-03T00:43:00;4.23;;;2.70;;
6566;SDS011;3317;43.994;22.878;2022-08-03T00:45:28;4.20;;;2.80;;
6566;SDS011;3317;43.994;22.878;2022-08-03T00:47:59;7.00;;;3.03;;
6566;SDS011;3317;43.994;22.878;2022-08-03T00:50:29;7.23;;;2.30;;
6566;SDS011;3317;43.994;22.878;2022-08-03T00:52:59;3.23;;;2.57;;
6566;SDS011;3317;43.994;22.878;2022-08-03T00:55:27;7.57;;;3.27;;
6566;SDS011;3317;43.994;22.878;2022-08-03T00:57:54;5.13;;;3.10;;
6566;SDS011;3317;43.994;22.878;2022-08-03T01:00:22;4.33;;;2.83;;
6566;SDS011;3317;43.994;22.878;2022-08-03T01:02:51;4.80;;;3.30;;
6566;SDS011;3317;43.994;22.878;2022-08-03T01:05:18;3.50;;;2.77;;
6566;SDS011;3317;43.994;22.878;2022-08-03T01:07:53;3.97;;;3.00;;
6566;SDS011;3317;43.994;22.878;2022-08-03T01:10:31;3.47;;;2.90;;
6566;SDS011;3317;43.994;22.878;2022-08-03T01:13:06;5.63;;;3.00;;
6566;SDS011;3317;43.994;22.878;2022-08-03T01:15:43;5.10;;;3.20;;
6566;SDS011;3317;43.994;22.878;2022-08-03T01:18:19;5.23;;;3.10;;
6566;SDS011;3317;43.994;22.878;2022-08-03T01:20:50;3.70;;;3.10;;
6566;SDS011;3317;43.994;22.878;2022-08-03T01:26:32;5.07;;;2.90;;
6566;SDS011;3317;43.994;22.878;2022-08-03T01:29:18;4.80;;;2.97;;
6566;SDS011;3317;43.994;22.878;2022-08-03T01:32:11;3.40;;;2.77;;
6566;SDS011;3317;43.994;22.878;2022-08-03T01:34:42;3.27;;;2.80;;
6566;SDS011;3317;43.994;22.878;2022-08-03T01:37:14;4.33;;;3.00;;
6566;SDS011;3317;43.994;22.878;2022-08-03T01:39:45;3.50;;;3.20;;
6566;SDS011;3317;43.994;22.878;2022-08-03T01:42:14;2.90;;;2.60;;
6566;SDS011;3317;43.994;22.878;2022-08-03T01:44:44;4.20;;;2.67;;
6566;SDS011;3317;43.994;22.878;2022-08-03T01:47:14;4.67;;;3.07;;
6566;SDS011;3317;43.994;22.878;2022-08-03T01:49:45;4.97;;;2.80;;
6566;SDS011;3317;43.994;22.878;2022-08-03T01:52:17;3.80;;;3.00;;
6566;SDS011;3317;43.994;22.878;2022-08-03T01:54:47;3.10;;;2.80;;
6566;SDS011;3317;43.994;22.878;2022-08-03T01:57:16;3.20;;;2.90;;
6566;SDS011;3317;43.994;22.878;2022-08-03T01:59:46;3.60;;;2.70;;
6566;SDS011;3317;43.994;22.878;2022-08-03T02:02:16;4.23;;;3.30;;
6566;SDS011;3317;43.994;22.878;2022-08-03T02:04:45;4.00;;;3.10;;
6566;SDS011;3317;43.994;22.878;2022-08-03T02:07:14;5.67;;;2.90;;
6566;SDS011;3317;43.994;22.878;2022-08-03T02:09:43;3.73;;;2.63;;
6566;SDS011;3317;43.994;22.878;2022-08-03T02:12:12;3.57;;;2.80;;
6566;SDS011;3317;43.994;22.878;2022-08-03T02:14:40;3.50;;;3.07;;
6566;SDS011;3317;43.994;22.878;2022-08-03T02:17:09;7.60;;;3.07;;
6566;SDS011;3317;43.994;22.878;2022-08-03T02:19:39;5.40;;;3.00;;
6566;SDS011;3317;43.994;22.878;2022-08-03T02:22:09;4.07;;;2.93;;
6566;SDS011;3317;43.994;22.878;2022-08-03T02:24:37;2.97;;;2.60;;
6566;SDS011;3317;43.994;22.878;2022-08-03T02:27:05;3.30;;;2.70;;
6566;SDS011;3317;43.994;22.878;2022-08-03T02:29:38;4.17;;;3.10;;
6566;SDS011;3317;43.994;22.878;2022-08-03T02:32:08;4.30;;;2.90;;
6566;SDS011;3317;43.994;22.878;2022-08-03T02:34:39;3.37;;;2.90;;
6566;SDS011;3317;43.994;22.878;2022-08-03T02:37:10;4.70;;;3.07;;
6566;SDS011;3317;43.994;22.878;2022-08-03T02:39:39;4.30;;;2.87;;
6566;SDS011;3317;43.994;22.878;2022-08-03T02:42:09;3.27;;;2.87;;
6566;SDS011;3317;43.994;22.878;2022-08-03T02:44:39;5.53;;;2.90;;
6566;SDS011;3317;43.994;22.878;2022-08-03T02:47:11;3.83;;;3.13;;
6566;SDS011;3317;43.994;22.878;2022-08-03T02:49:43;3.67;;;2.70;;
6566;SDS011;3317;43.994;22.878;2022-08-03T02:52:13;4.97;;;3.20;;
6566;SDS011;3317;43.994;22.878;2022-08-03T02:54:41;6.77;;;2.80;;
6566;SDS011;3317;43.994;22.878;2022-08-03T02:57:11;4.90;;;3.03;;
6566;SDS011;3317;43.994;22.878;2022-08-03T02:59:41;3.37;;;2.80;;
6566;SDS011;3317;43.994;22.878;2022-08-03T03:02:09;3.90;;;3.10;;
6566;SDS011;3317;43.994;22.878;2022-08-03T03:04:38;7.97;;;2.70;;
6566;SDS011;3317;43.994;22.878;2022-08-03T03:07:07;4.37;;;2.70;;
6566;SDS011;3317;43.994;22.878;2022-08-03T03:09:35;3.20;;;2.70;;
6566;SDS011;3317;43.994;22.878;2022-08-03T03:12:02;5.37;;;2.73;;
6566;SDS011;3317;43.994;22.878;2022-08-03T03:14:31;3.50;;;2.90;;
6566;SDS011;3317;43.994;22.878;2022-08-03T03:17:00;5.20;;;2.93;;
6566;SDS011;3317;43.994;22.878;2022-08-03T03:19:27;10.00;;;3.10;;
6566;SDS011;3317;43.994;22.878;2022-08-03T03:21:56;4.07;;;2.90;;
6566;SDS011;3317;43.994;22.878;2022-08-03T03:24:27;4.73;;;3.10;;
6566;SDS011;3317;43.994;22.878;2022-08-03T03:26:55;4.30;;;3.00;;
6566;SDS011;3317;43.994;22.878;2022-08-03T03:29:23;3.60;;;3.20;;
6566;SDS011;3317;43.994;22.878;2022-08-03T03:31:50;3.40;;;3.10;;
6566;SDS011;3317;43.994;22.878;2022-08-03T03:34:17;6.00;;;3.37;;
6566;SDS011;3317;43.994;22.878;2022-08-03T03:36:45;7.23;;;3.37;;
6566;SDS011;3317;43.994;22.878;2022-08-03T03:39:12;4.10;;;2.70;;
6566;SDS011;3317;43.994;22.878;2022-08-03T03:41:42;5.20;;;3.50;;
6566;SDS011;3317;43.994;22.878;2022-08-03T03:44:09;5.57;;;2.90;;
6566;SDS011;3317;43.994;22.878;2022-08-03T03:46:36;7.30;;;3.00;;
6566;SDS011;3317;43.994;22.878;2022-08-03T03:49:06;4.63;;;2.87;;
6566;SDS011;3317;43.994;22.878;2022-08-03T03:51:34;3.67;;;3.17;;
6566;SDS011;3317;43.994;22.878;2022-08-03T03:54:02;5.03;;;3.47;;
6566;SDS011;3317;43.994;22.878;2022-08-03T03:56:29;9.57;;;3.23;;
6566;SDS011;3317;43.994;22.878;2022-08-03T03:58:58;6.13;;;3.60;;
6566;SDS011;3317;43.994;22.878;2022-08-03T04:01:25;6.60;;;3.40;;
6566;SDS011;3317;43.994;22.878;2022-08-03T04:03:52;5.60;;;3.47;;
6566;SDS011;3317;43.994;22.878;2022-08-03T04:06:19;3.63;;;3.03;;
6566;SDS011;3317;43.994;22.878;2022-08-03T04:09:03;7.60;;;3.30;;
6566;SDS011;3317;43.994;22.878;2022-08-03T04:11:50;6.20;;;3.17;;
6566;SDS011;3317;43.994;22.878;2022-08-03T04:14:21;5.80;;;3.43;;
6566;SDS011;3317;43.994;22.878;2022-08-03T04:16:52;10.73;;;3.70;;
6566;SDS011;3317;43.994;22.878;2022-08-03T04:19:26;4.57;;;3.40;;
6566;SDS011;3317;43.994;22.878;2022-08-03T04:21:58;10.53;;;3.83;;
6566;SDS011;3317;43.994;22.878;2022-08-03T04:24:29;5.17;;;3.80;;
6566;SDS011;3317;43.994;22.878;2022-08-03T04:27:00;4.67;;;3.40;;
6566;SDS011;3317;43.994;22.878;2022-08-03T04:29:32;4.93;;;4.30;;
6566;SDS011;3317;43.994;22.878;2022-08-03T04:32:01;10.47;;;4.37;;
6566;SDS011;3317;43.994;22.878;2022-08-03T04:34:30;6.63;;;4.53;;
6566;SDS011;3317;43.994;22.878;2022-08-03T04:36:59;10.90;;;5.47;;
6566;SDS011;3317;43.994;22.878;2022-08-03T04:39:28;9.37;;;5.10;;
6566;SDS011;3317;43.994;22.878;2022-08-03T04:41:59;9.23;;;5.20;;
6566;SDS011;3317;43.994;22.878;2022-08-03T04:44:29;8.97;;;5.43;;
6566;SDS011;3317;43.994;22.878;2022-08-03T04:47:01;7.23;;;5.17;;
6566;SDS011;3317;43.994;22.878;2022-08-03T04:49:28;8.40;;;5.20;;
6566;SDS011;3317;43.994;22.878;2022-08-03T04:51:56;9.43;;;4.80;;
6566;SDS011;3317;43.994;22.878;2022-08-03T04:54:24;6.43;;;4.00;;
6566;SDS011;3317;43.994;22.878;2022-08-03T04:56:51;11.30;;;4.90;;
6566;SDS011;3317;43.994;22.878;2022-08-03T04:59:18;8.00;;;4.50;;
6566;SDS011;3317;43.994;22.878;2022-08-03T05:01:46;6.73;;;4.27;;
6566;SDS011;3317;43.994;22.878;2022-08-03T05:04:13;9.50;;;4.60;;
6566;SDS011;3317;43.994;22.878;2022-08-03T05:06:40;8.27;;;5.90;;
6566;SDS011;3317;43.994;22.878;2022-08-03T05:09:07;10.17;;;4.60;;
6566;SDS011;3317;43.994;22.878;2022-08-03T05:11:36;8.83;;;4.70;;
6566;SDS011;3317;43.994;22.878;2022-08-03T05:14:05;6.63;;;4.90;;
6566;SDS011;3317;43.994;22.878;2022-08-03T05:16:32;5.30;;;4.20;;
6566;SDS011;3317;43.994;22.878;2022-08-03T05:19:00;6.30;;;4.40;;
6566;SDS011;3317;43.994;22.878;2022-08-03T05:21:27;8.67;;;4.13;;
6566;SDS011;3317;43.994;22.878;2022-08-03T05:23:54;6.17;;;4.20;;
6566;SDS011;3317;43.994;22.878;2022-08-03T05:26:21;6.50;;;4.30;;
6566;SDS011;3317;43.994;22.878;2022-08-03T05:28:48;6.80;;;4.20;;
6566;SDS011;3317;43.994;22.878;2022-08-03T05:31:16;7.00;;;4.10;;
6566;SDS011;3317;43.994;22.878;2022-08-03T05:33:44;6.87;;;4.20;;
6566;SDS011;3317;43.994;22.878;2022-08-03T05:36:14;8.80;;;4.80;;
6566;SDS011;3317;43.994;22.878;2022-08-03T05:38:42;6.10;;;5.20;;
6566;SDS011;3317;43.994;22.878;2022-08-03T05:41:12;10.07;;;5.30;;
6566;SDS011;3317;43.994;22.878;2022-08-03T05:43:39;6.50;;;4.80;;
6566;SDS011;3317;43.994;22.878;2022-08-03T05:46:06;10.50;;;5.60;;
6566;SDS011;3317;43.994;22.878;2022-08-03T05:48:34;5.90;;;3.70;;
6566;SDS011;3317;43.994;22.878;2022-08-03T05:51:01;9.07;;;5.10;;
6566;SDS011;3317;43.994;22.878;2022-08-03T05:53:33;8.10;;;4.00;;
6566;SDS011;3317;43.994;22.878;2022-08-03T05:56:00;6.10;;;3.97;;
6566;SDS011;3317;43.994;22.878;2022-08-03T05:58:27;8.00;;;4.17;;
6566;SDS011;3317;43.994;22.878;2022-08-03T06:00:54;4.43;;;4.03;;
6566;SDS011;3317;43.994;22.878;2022-08-03T06:03:21;9.73;;;4.07;;
6566;SDS011;3317;43.994;22.878;2022-08-03T06:05:48;7.70;;;4.47;;
6566;SDS011;3317;43.994;22.878;2022-08-03T06:08:15;6.97;;;4.13;;
6566;SDS011;3317;43.994;22.878;2022-08-03T06:10:43;11.07;;;4.50;;
6566;SDS011;3317;43.994;22.878;2022-08-03T06:13:10;6.67;;;4.43;;
6566;SDS011;3317;43.994;22.878;2022-08-03T06:15:37;4.77;;;4.20;;
6566;SDS011;3317;43.994;22.878;2022-08-03T06:18:04;5.80;;;3.83;;
6566;SDS011;3317;43.994;22.878;2022-08-03T06:20:33;11.93;;;4.37;;
6566;SDS011;3317;43.994;22.878;2022-08-03T06:23:00;8.97;;;4.53;;
6566;SDS011;3317;43.994;22.878;2022-08-03T06:25:28;6.50;;;4.20;;
6566;SDS011;3317;43.994;22.878;2022-08-03T06:27:57;6.87;;;4.40;;
6566;SDS011;3317;43.994;22.878;2022-08-03T06:30:24;4.87;;;4.37;;
6566;SDS011;3317;43.994;22.878;2022-08-03T06:32:51;9.53;;;4.10;;
6566;SDS011;3317;43.994;22.878;2022-08-03T06:35:19;5.50;;;4.50;;
6566;SDS011;3317;43.994;22.878;2022-08-03T06:37:48;5.77;;;4.17;;
6566;SDS011;3317;43.994;22.878;2022-08-03T06:40:16;4.20;;;3.80;;
6566;SDS011;3317;43.994;22.878;2022-08-03T06:42:44;6.77;;;4.00;;
6566;SDS011;3317;43.994;22.878;2022-08-03T06:45:13;5.90;;;4.43;;
6566;SDS011;3317;43.994;22.878;2022-08-03T06:47:40;5.53;;;4.67;;
6566;SDS011;3317;43.994;22.878;2022-08-03T06:50:08;4.70;;;4.27;;
6566;SDS011;3317;43.994;22.878;2022-08-03T06:52:36;10.60;;;4.83;;
6566;SDS011;3317;43.994;22.878;2022-08-03T06:55:03;5.93;;;4.10;;
6566;SDS011;3317;43.994;22.878;2022-08-03T06:57:31;5.97;;;4.13;;
6566;SDS011;3317;43.994;22.878;2022-08-03T06:59:58;5.90;;;3.60;;
6566;SDS011;3317;43.994;22.878;2022-08-03T07:02:27;5.40;;;4.23;;
6566;SDS011;3317;43.994;22.878;2022-08-03T07:04:55;7.13;;;4.33;;
6566;SDS011;3317;43.994;22.878;2022-08-03T07:07:22;5.53;;;3.70;;
6566;SDS011;3317;43.994;22.878;2022-08-03T07:09:50;4.77;;;4.00;;
6566;SDS011;3317;43.994;22.878;2022-08-03T07:12:17;4.60;;;4.20;;
6566;SDS011;3317;43.994;22.878;2022-08-03T07:14:44;4.83;;;4.10;;
6566;SDS011;3317;43.994;22.878;2022-08-03T07:17:11;4.47;;;3.57;;
6566;SDS011;3317;43.994;22.878;2022-08-03T07:19:43;4.60;;;4.00;;
6566;SDS011;3317;43.994;22.878;2022-08-03T07:22:10;4.80;;;4.10;;
6566;SDS011;3317;43.994;22.878;2022-08-03T07:24:37;4.80;;;3.90;;
6566;SDS011;3317;43.994;22.878;2022-08-03T07:27:06;5.00;;;4.10;;
6566;SDS011;3317;43.994;22.878;2022-08-03T07:29:33;7.77;;;4.63;;
6566;SDS011;3317;43.994;22.878;2022-08-03T07:32:00;4.60;;;4.03;;
6566;SDS011;3317;43.994;22.878;2022-08-03T07:34:27;6.27;;;3.80;;
6566;SDS011;3317;43.994;22.878;2022-08-03T07:36:56;5.70;;;3.97;;
6566;SDS011;3317;43.994;22.878;2022-08-03T07:39:25;8.57;;;4.30;;
6566;SDS011;3317;43.994;22.878;2022-08-03T07:41:52;6.50;;;4.13;;
6566;SDS011;3317;43.994;22.878;2022-08-03T07:44:19;7.77;;;3.90;;
6566;SDS011;3317;43.994;22.878;2022-08-03T07:46:46;5.03;;;4.00;;
6566;SDS011;3317;43.994;22.878;2022-08-03T07:49:14;4.00;;;3.60;;
6566;SDS011;3317;43.994;22.878;2022-08-03T07:51:42;4.40;;;3.60;;
6566;SDS011;3317;43.994;22.878;2022-08-03T07:54:10;4.67;;;3.80;;
6566;SDS011;3317;43.994;22.878;2022-08-03T07:56:38;5.43;;;4.07;;
6566;SDS011;3317;43.994;22.878;2022-08-03T07:59:05;3.73;;;3.20;;
6566;SDS011;3317;43.994;22.878;2022-08-03T08:01:32;4.93;;;3.20;;
6566;SDS011;3317;43.994;22.878;2022-08-03T08:04:02;4.23;;;3.80;;
6566;SDS011;3317;43.994;22.878;2022-08-03T08:06:30;5.30;;;4.37;;
6566;SDS011;3317;43.994;22.878;2022-08-03T08:08:58;4.70;;;3.67;;
6566;SDS011;3317;43.994;22.878;2022-08-03T08:11:28;6.63;;;3.80;;
6566;SDS011;3317;43.994;22.878;2022-08-03T08:13:55;5.20;;;3.70;;
6566;SDS011;3317;43.994;22.878;2022-08-03T08:16:22;4.50;;;4.00;;
6566;SDS011;3317;43.994;22.878;2022-08-03T08:18:49;6.50;;;3.87;;
6566;SDS011;3317;43.994;22.878;2022-08-03T08:21:16;3.73;;;3.43;;
6566;SDS011;3317;43.994;22.878;2022-08-03T08:23:43;4.17;;;3.60;;
6566;SDS011;3317;43.994;22.878;2022-08-03T08:26:10;7.77;;;3.57;;
6566;SDS011;3317;43.994;22.878;2022-08-03T08:28:39;7.27;;;3.30;;
6566;SDS011;3317;43.994;22.878;2022-08-03T08:31:06;6.27;;;3.90;;
6566;SDS011;3317;43.994;22.878;2022-08-03T08:33:34;3.77;;;3.43;;
6566;SDS011;3317;43.994;22.878;2022-08-03T08:36:02;4.07;;;3.43;;
6566;SDS011;3317;43.994;22.878;2022-08-03T08:38:29;4.50;;;3.40;;
6566;SDS011;3317;43.994;22.878;2022-08-03T08:40:59;5.77;;;3.50;;
6566;SDS011;3317;43.994;22.878;2022-08-03T08:43:26;4.27;;;3.40;;
6566;SDS011;3317;43.994;22.878;2022-08-03T08:45:56;4.60;;;3.40;;
6566;SDS011;3317;43.994;22.878;2022-08-03T08:48:24;4.63;;;3.80;;
6566;SDS011;3317;43.994;22.878;2022-08-03T08:50:53;3.70;;;3.37;;
6566;SDS011;3317;43.994;22.878;2022-08-03T08:53:22;3.60;;;3.20;;
6566;SDS011;3317;43.994;22.878;2022-08-03T08:55:52;4.07;;;3.43;;
6566;SDS011;3317;43.994;22.878;2022-08-03T08:58:24;6.57;;;3.60;;
6566;SDS011;3317;43.994;22.878;2022-08-03T09:00:53;11.10;;;3.73;;
6566;SDS011;3317;43.994;22.878;2022-08-03T09:03:22;3.70;;;3.40;;
6566;SDS011;3317;43.994;22.878;2022-08-03T09:05:49;3.40;;;3.10;;
6566;SDS011;3317;43.994;22.878;2022-08-03T09:08:16;4.90;;;4.00;;
6566;SDS011;3317;43.994;22.878;2022-08-03T09:10:44;5.90;;;3.47;;
6566;SDS011;3317;43.994;22.878;2022-08-03T09:13:12;3.70;;;3.40;;
6566;SDS011;3317;43.994;22.878;2022-08-03T09:15:40;3.63;;;3.33;;
6566;SDS011;3317;43.994;22.878;2022-08-03T09:18:08;7.77;;;3.87;;
6566;SDS011;3317;43.994;22.878;2022-08-03T09:20:37;3.37;;;2.80;;
6566;SDS011;3317;43.994;22.878;2022-08-03T09:23:06;3.13;;;2.80;;
6566;SDS011;3317;43.994;22.878;2022-08-03T09:25:35;4.40;;;2.87;;
6566;SDS011;3317;43.994;22.878;2022-08-03T09:28:04;6.57;;;3.20;;
6566;SDS011;3317;43.994;22.878;2022-08-03T09:30:34;5.50;;;3.10;;
6566;SDS011;3317;43.994;22.878;2022-08-03T09:33:02;3.40;;;3.00;;
6566;SDS011;3317;43.994;22.878;2022-08-03T09:35:32;4.43;;;3.40;;
6566;SDS011;3317;43.994;22.878;2022-08-03T09:38:14;3.20;;;2.90;;
6566;SDS011;3317;43.994;22.878;2022-08-03T09:40:43;3.20;;;3.00;;
6566;SDS011;3317;43.994;22.878;2022-08-03T09:43:12;6.43;;;2.90;;
6566;SDS011;3317;43.994;22.878;2022-08-03T09:45:39;7.20;;;3.20;;
6566;SDS011;3317;43.994;22.878;2022-08-03T09:48:22;3.00;;;2.70;;
6566;SDS011;3317;43.994;22.878;2022-08-03T09:50:50;5.43;;;3.40;;
6566;SDS011;3317;43.994;22.878;2022-08-03T09:53:20;4.37;;;3.10;;
6566;SDS011;3317;43.994;22.878;2022-08-03T09:55:51;4.30;;;3.10;;
6566;SDS011;3317;43.994;22.878;2022-08-03T09:58:19;3.50;;;2.77;;
6566;SDS011;3317;43.994;22.878;2022-08-03T10:00:54;3.70;;;2.90;;
6566;SDS011;3317;43.994;22.878;2022-08-03T10:03:24;3.40;;;2.60;;
6566;SDS011;3317;43.994;22.878;2022-08-03T10:05:52;4.90;;;2.80;;
6566;SDS011;3317;43.994;22.878;2022-08-03T10:08:22;3.20;;;2.40;;
6566;SDS011;3317;43.994;22.878;2022-08-03T10:10:50;5.60;;;2.83;;
6566;SDS011;3317;43.994;22.878;2022-08-03T10:13:19;6.10;;;3.33;;
6566;SDS011;3317;43.994;22.878;2022-08-03T10:15:47;3.00;;;2.70;;
6566;SDS011;3317;43.994;22.878;2022-08-03T10:18:16;2.60;;;2.40;;
6566;SDS011;3317;43.994;22.878;2022-08-03T10:20:45;4.27;;;2.53;;
6566;SDS011;3317;43.994;22.878;2022-08-03T10:23:17;3.23;;;2.93;;
6566;SDS011;3317;43.994;22.878;2022-08-03T10:25:51;4.90;;;2.80;;
6566;SDS011;3317;43.994;22.878;2022-08-03T10:28:22;3.47;;;2.50;;
6566;SDS011;3317;43.994;22.878;2022-08-03T10:30:50;2.50;;;2.30;;
6566;SDS011;3317;43.994;22.878;2022-08-03T10:33:20;2.57;;;2.27;;
6566;SDS011;3317;43.994;22.878;2022-08-03T10:35:52;4.23;;;2.23;;
6566;SDS011;3317;43.994;22.878;2022-08-03T10:38:24;3.00;;;2.10;;
6566;SDS011;3317;43.994;22.878;2022-08-03T10:40:59;2.23;;;2.03;;
6566;SDS011;3317;43.994;22.878;2022-08-03T10:43:30;3.17;;;2.10;;
6566;SDS011;3317;43.994;22.878;2022-08-03T10:46:04;2.20;;;2.10;;
6566;SDS011;3317;43.994;22.878;2022-08-03T10:48:36;4.10;;;2.33;;
6566;SDS011;3317;43.994;22.878;2022-08-03T10:51:05;3.43;;;2.30;;
6566;SDS011;3317;43.994;22.878;2022-08-03T10:53:33;2.53;;;2.30;;
6566;SDS011;3317;43.994;22.878;2022-08-03T10:56:04;6.90;;;2.80;;
6566;SDS011;3317;43.994;22.878;2022-08-03T10:58:49;2.50;;;2.30;;
6566;SDS011;3317;43.994;22.878;2022-08-03T11:01:17;5.83;;;2.50;;
6566;SDS011;3317;43.994;22.878;2022-08-03T11:06:40;4.20;;;2.80;;
6566;SDS011;3317;43.994;22.878;2022-08-03T11:09:14;2.50;;;2.30;;
6566;SDS011;3317;43.994;22.878;2022-08-03T11:11:44;2.60;;;2.40;;
6566;SDS011;3317;43.994;22.878;2022-08-03T11:14:30;3.80;;;2.67;;
6566;SDS011;3317;43.994;22.878;2022-08-03T11:17:12;7.80;;;2.33;;
6566;SDS011;3317;43.994;22.878;2022-08-03T11:19:42;2.47;;;2.37;;
6566;SDS011;3317;43.994;22.878;2022-08-03T11:22:10;3.40;;;2.57;;
6566;SDS011;3317;43.994;22.878;2022-08-03T11:27:24;2.40;;;2.20;;
6566;SDS011;3317;43.994;22.878;2022-08-03T11:29:54;5.20;;;2.47;;
6566;SDS011;3317;43.994;22.878;2022-08-03T11:35:26;7.83;;;2.83;;
6566;SDS011;3317;43.994;22.878;2022-08-03T11:38:04;3.83;;;2.60;;
6566;SDS011;3317;43.994;22.878;2022-08-03T11:40:43;3.27;;;2.40;;
6566;SDS011;3317;43.994;22.878;2022-08-03T11:46:16;3.00;;;2.70;;
6566;SDS011;3317;43.994;22.878;2022-08-03T11:48:46;2.40;;;2.20;;
6566;SDS011;3317;43.994;22.878;2022-08-03T11:51:18;2.53;;;2.30;;
6566;SDS011;3317;43.994;22.878;2022-08-03T11:53:48;3.37;;;2.60;;
6566;SDS011;3317;43.994;22.878;2022-08-03T11:56:17;2.87;;;2.60;;
6566;SDS011;3317;43.994;22.878;2022-08-03T11:58:45;2.50;;;2.30;;
6566;SDS011;3317;43.994;22.878;2022-08-03T12:01:18;2.73;;;2.20;;
6566;SDS011;3317;43.994;22.878;2022-08-03T12:03:45;3.53;;;2.50;;
6566;SDS011;3317;43.994;22.878;2022-08-03T12:06:14;2.57;;;2.33;;
6566;SDS011;3317;43.994;22.878;2022-08-03T12:08:42;2.67;;;2.37;;
6566;SDS011;3317;43.994;22.878;2022-08-03T12:11:10;3.13;;;2.50;;
6566;SDS011;3317;43.994;22.878;2022-08-03T12:13:40;5.50;;;2.40;;
6566;SDS011;3317;43.994;22.878;2022-08-03T12:16:11;3.20;;;2.70;;
6566;SDS011;3317;43.994;22.878;2022-08-03T12:18:43;3.00;;;2.10;;
6566;SDS011;3317;43.994;22.878;2022-08-03T12:21:10;4.70;;;2.20;;
6566;SDS011;3317;43.994;22.878;2022-08-03T12:23:38;3.53;;;2.17;;
6566;SDS011;3317;43.994;22.878;2022-08-03T12:26:05;5.23;;;2.20;;
6566;SDS011;3317;43.994;22.878;2022-08-03T12:28:35;2.50;;;2.30;;
6566;SDS011;3317;43.994;22.878;2022-08-03T12:31:03;2.80;;;2.40;;
6566;SDS011;3317;43.994;22.878;2022-08-03T12:36:22;2.97;;;2.50;;
6566;SDS011;3317;43.994;22.878;2022-08-03T12:38:53;2.70;;;2.43;;
6566;SDS011;3317;43.994;22.878;2022-08-03T12:41:26;2.57;;;2.37;;
6566;SDS011;3317;43.994;22.878;2022-08-03T12:43:54;2.83;;;2.63;;
6566;SDS011;3317;43.994;22.878;2022-08-03T12:46:21;2.60;;;2.40;;
6566;SDS011;3317;43.994;22.878;2022-08-03T12:49:04;3.10;;;2.80;;
6566;SDS011;3317;43.994;22.878;2022-08-03T12:51:33;3.07;;;2.00;;
6566;SDS011;3317;43.994;22.878;2022-08-03T12:54:01;4.63;;;3.03;;
6566;SDS011;3317;43.994;22.878;2022-08-03T12:56:31;3.63;;;2.40;;
6566;SDS011;3317;43.994;22.878;2022-08-03T12:58:58;3.80;;;2.50;;
6566;SDS011;3317;43.994;22.878;2022-08-03T13:04:58;2.57;;;2.37;;
6566;SDS011;3317;43.994;22.878;2022-08-03T13:07:39;2.73;;;2.40;;
6566;SDS011;3317;43.994;22.878;2022-08-03T13:10:07;2.57;;;2.37;;
6566;SDS011;3317;43.994;22.878;2022-08-03T13:12:44;2.60;;;2.37;;
6566;SDS011;3317;43.994;22.878;2022-08-03T13:15:12;3.40;;;2.30;;
6566;SDS011;3317;43.994;22.878;2022-08-03T13:17:40;4.23;;;2.83;;
6566;SDS011;3317;43.994;22.878;2022-08-03T13:20:09;4.70;;;2.60;;
6566;SDS011;3317;43.994;22.878;2022-08-03T13:22:36;2.67;;;2.40;;
6566;SDS011;3317;43.994;22.878;2022-08-03T13:25:03;3.93;;;2.43;;
6566;SDS011;3317;43.994;22.878;2022-08-03T13:27:31;2.70;;;2.50;;
6566;SDS011;3317;43.994;22.878;2022-08-03T13:29:58;2.70;;;2.07;;
6566;SDS011;3317;43.994;22.878;2022-08-03T13:32:25;2.10;;;2.00;;
6566;SDS011;3317;43.994;22.878;2022-08-03T13:34:52;4.03;;;2.30;;
6566;SDS011;3317;43.994;22.878;2022-08-03T13:37:20;3.07;;;2.50;;
6566;SDS011;3317;43.994;22.878;2022-08-03T13:39:47;2.97;;;2.30;;
6566;SDS011;3317;43.994;22.878;2022-08-03T13:42:15;3.03;;;2.43;;
6566;SDS011;3317;43.994;22.878;2022-08-03T13:44:42;2.60;;;2.40;;
6566;SDS011;3317;43.994;22.878;2022-08-03T13:47:09;3.10;;;2.30;;
6566;SDS011;3317;43.994;22.878;2022-08-03T13:49:36;3.57;;;2.23;;
6566;SDS011;3317;43.994;22.878;2022-08-03T13:52:04;2.60;;;2.40;;
6566;SDS011;3317;43.994;22.878;2022-08-03T13:54:32;2.83;;;2.27;;
6566;SDS011;3317;43.994;22.878;2022-08-03T13:56:59;3.37;;;2.20;;
6566;SDS011;3317;43.994;22.878;2022-08-03T13:59:26;2.60;;;2.40;;
6566;SDS011;3317;43.994;22.878;2022-08-03T14:01:53;3.00;;;2.63;;
6566;SDS011;3317;43.994;22.878;2022-08-03T14:04:20;4.20;;;2.43;;
6566;SDS011;3317;43.994;22.878;2022-08-03T14:06:48;2.40;;;2.13;;
6566;SDS011;3317;43.994;22.878;2022-08-03T14:09:15;2.30;;;2.10;;
6566;SDS011;3317;43.994;22.878;2022-08-03T14:11:44;5.37;;;2.30;;
6566;SDS011;3317;43.994;22.878;2022-08-03T14:14:12;4.23;;;2.40;;
6566;SDS011;3317;43.994;22.878;2022-08-03T14:16:39;2.70;;;2.50;;
6566;SDS011;3317;43.994;22.878;2022-08-03T14:19:07;3.30;;;3.00;;
6566;SDS011;3317;43.994;22.878;2022-08-03T14:21:35;4.20;;;2.73;;
6566;SDS011;3317;43.994;22.878;2022-08-03T14:24:03;3.57;;;2.50;;
6566;SDS011;3317;43.994;22.878;2022-08-03T14:26:30;2.33;;;2.13;;
6566;SDS011;3317;43.994;22.878;2022-08-03T14:29:00;3.20;;;2.90;;
6566;SDS011;3317;43.994;22.878;2022-08-03T14:31:29;3.10;;;2.43;;
6566;SDS011;3317;43.994;22.878;2022-08-03T14:33:57;5.50;;;2.47;;
6566;SDS011;3317;43.994;22.878;2022-08-03T14:36:24;2.20;;;2.10;;
6566;SDS011;3317;43.994;22.878;2022-08-03T14:38:51;3.47;;;3.10;;
6566;SDS011;3317;43.994;22.878;2022-08-03T14:41:18;2.50;;;2.30;;
6566;SDS011;3317;43.994;22.878;2022-08-03T14:43:46;2.77;;;2.57;;
6566;SDS011;3317;43.994;22.878;2022-08-03T14:46:15;2.70;;;2.50;;
6566;SDS011;3317;43.994;22.878;2022-08-03T14:48:43;2.70;;;2.30;;
6566;SDS011;3317;43.994;22.878;2022-08-03T14:51:10;4.93;;;2.40;;
6566;SDS011;3317;43.994;22.878;2022-08-03T14:53:43;2.20;;;2.00;;
6566;SDS011;3317;43.994;22.878;2022-08-03T14:56:11;3.00;;;2.37;;
6566;SDS011;3317;43.994;22.878;2022-08-03T14:58:38;4.53;;;2.30;;
6566;SDS011;3317;43.994;22.878;2022-08-03T15:01:08;2.40;;;2.00;;
6566;SDS011;3317;43.994;22.878;2022-08-03T15:03:37;3.43;;;2.40;;
6566;SDS011;3317;43.994;22.878;2022-08-03T15:06:04;3.13;;;2.37;;
6566;SDS011;3317;43.994;22.878;2022-08-03T15:08:32;2.90;;;2.50;;
6566;SDS011;3317;43.994;22.878;2022-08-03T15:11:01;4.07;;;2.33;;
6566;SDS011;3317;43.994;22.878;2022-08-03T15:13:31;2.90;;;2.60;;
6566;SDS011;3317;43.994;22.878;2022-08-03T15:15:58;5.53;;;2.60;;
6566;SDS011;3317;43.994;22.878;2022-08-03T15:18:25;2.40;;;2.20;;
6566;SDS011;3317;43.994;22.878;2022-08-03T15:20:53;6.70;;;2.43;;
6566;SDS011;3317;43.994;22.878;2022-08-03T15:23:21;3.43;;;2.60;;
6566;SDS011;3317;43.994;22.878;2022-08-03T15:25:50;4.33;;;2.50;;
6566;SDS011;3317;43.994;22.878;2022-08-03T15:28:17;2.53;;;2.33;;
6566;SDS011;3317;43.994;22.878;2022-08-03T15:30:45;2.40;;;2.20;;
6566;SDS011;3317;43.994;22.878;2022-08-03T15:33:12;3.67;;;2.50;;